sensor_id;sensor_type;location;lat;lon;timestamp;temperature;humidity
48206;DHT22;33995;48.202;16.260;2022-10-31T00:01:30;11.70;99.90
48206;DHT22;33995;48.202;16.260;2022-10-31T00:03:58;11.60;99.90
48206;DHT22;33995;48.202;16.260;2022-10-31T00:06:26;11.60;99.90
48206;DHT22;33995;48.202;16.260;2022-10-31T00:08:56;11.60;99.90
48206;DHT22;33995;48.202;16.260;2022-10-31T00:11:24;11.60;99.90
48206;DHT22;33995;48.202;16.260;2022-10-31T00:13:51;11.60;99.90
48206;DHT22;33995;48.202;16.260;2022-10-31T00:16:24;11.70;99.90
48206;DHT22;33995;48.202;16.260;2022-10-31T00:18:53;11.60;99.90
48206;DHT22;33995;48.202;16.260;2022-10-31T00:21:21;11.70;99.90
48206;DHT22;33995;48.202;16.260;2022-10-31T00:23:49;11.60;99.90
48206;DHT22;33995;48.202;16.260;2022-10-31T00:26:17;11.70;99.90
48206;DHT22;33995;48.202;16.260;2022-10-31T00:28:44;11.70;99.90
48206;DHT22;33995;48.202;16.260;2022-10-31T00:31:13;11.70;99.90
48206;DHT22;33995;48.202;16.260;2022-10-31T00:33:41;11.70;99.90
48206;DHT22;33995;48.202;16.260;2022-10-31T00:36:14;11.70;99.90
48206;DHT22;33995;48.202;16.260;2022-10-31T00:38:43;11.60;99.90
48206;DHT22;33995;48.202;16.260;2022-10-31T00:41:11;11.60;99.90
48206;DHT22;33995;48.202;16.260;2022-10-31T00:43:41;11.60;99.90
48206;DHT22;33995;48.202;16.260;2022-10-31T00:46:09;11.70;99.90
48206;DHT22;33995;48.202;16.260;2022-10-31T00:48:37;11.70;99.90
48206;DHT22;33995;48.202;16.260;2022-10-31T00:51:05;11.60;99.90
48206;DHT22;33995;48.202;16.260;2022-10-31T00:53:32;11.60;99.90
48206;DHT22;33995;48.202;16.260;2022-10-31T00:56:00;11.70;99.90
48206;DHT22;33995;48.202;16.260;2022-10-31T00:58:28;11.70;99.90
48206;DHT22;33995;48.202;16.260;2022-10-31T01:00:56;11.70;99.90
48206;DHT22;33995;48.202;16.260;2022-10-31T01:03:30;11.70;99.90
48206;DHT22;33995;48.202;16.260;2022-10-31T01:06:04;11.70;99.90
48206;DHT22;33995;48.202;16.260;2022-10-31T01:08:33;11.70;99.90
48206;DHT22;33995;48.202;16.260;2022-10-31T01:13:32;11.70;99.90
48206;DHT22;33995;48.202;16.260;2022-10-31T01:16:02;11.70;99.90
48206;DHT22;33995;48.202;16.260;2022-10-31T01:18:32;11.70;99.90
48206;DHT22;33995;48.202;16.260;2022-10-31T01:21:06;11.70;99.90
48206;DHT22;33995;48.202;16.260;2022-10-31T01:23:34;11.70;99.90
48206;DHT22;33995;48.202;16.260;2022-10-31T01:26:13;11.70;99.90
48206;DHT22;33995;48.202;16.260;2022-10-31T01:28:51;11.70;99.90
48206;DHT22;33995;48.202;16.260;2022-10-31T01:31:21;11.60;99.90
48206;DHT22;33995;48.202;16.260;2022-10-31T01:33:49;11.70;99.90
48206;DHT22;33995;48.202;16.260;2022-10-31T01:36:19;11.60;99.90
48206;DHT22;33995;48.202;16.260;2022-10-31T01:38:51;11.60;99.90
48206;DHT22;33995;48.202;16.260;2022-10-31T01:41:25;11.60;99.90
48206;DHT22;33995;48.202;16.260;2022-10-31T01:43:59;11.60;99.90
48206;DHT22;33995;48.202;16.260;2022-10-31T01:46:34;11.60;99.90
48206;DHT22;33995;48.202;16.260;2022-10-31T01:49:05;11.60;99.90
48206;DHT22;33995;48.202;16.260;2022-10-31T01:51:38;11.60;99.90
48206;DHT22;33995;48.202;16.260;2022-10-31T01:54:12;11.60;99.90
48206;DHT22;33995;48.202;16.260;2022-10-31T01:56:43;11.60;99.90
48206;DHT22;33995;48.202;16.260;2022-10-31T01:59:15;11.60;99.90
48206;DHT22;33995;48.202;16.260;2022-10-31T02:01:45;11.50;99.90
48206;DHT22;33995;48.202;16.260;2022-10-31T02:04:17;11.50;99.90
48206;DHT22;33995;48.202;16.260;2022-10-31T02:06:54;11.50;99.90
48206;DHT22;33995;48.202;16.260;2022-10-31T02:09:22;11.60;99.90
48206;DHT22;33995;48.202;16.260;2022-10-31T02:11:56;11.40;99.90
48206;DHT22;33995;48.202;16.260;2022-10-31T02:14:27;11.40;99.90
48206;DHT22;33995;48.202;16.260;2022-10-31T02:16:55;11.40;99.90
48206;DHT22;33995;48.202;16.260;2022-10-31T02:19:54;11.40;99.90
48206;DHT22;33995;48.202;16.260;2022-10-31T02:31:33;11.20;99.90
48206;DHT22;33995;48.202;16.260;2022-10-31T02:37:01;11.20;99.90
48206;DHT22;33995;48.202;16.260;2022-10-31T02:39:39;11.20;99.90
48206;DHT22;33995;48.202;16.260;2022-10-31T02:42:17;11.20;99.90
48206;DHT22;33995;48.202;16.260;2022-10-31T02:44:53;11.20;99.90
48206;DHT22;33995;48.202;16.260;2022-10-31T02:47:36;11.00;99.90
48206;DHT22;33995;48.202;16.260;2022-10-31T02:50:28;11.10;99.90
48206;DHT22;33995;48.202;16.260;2022-10-31T02:53:05;11.00;99.90
48206;DHT22;33995;48.202;16.260;2022-10-31T02:58:15;11.00;99.90
48206;DHT22;33995;48.202;16.260;2022-10-31T03:10:06;11.00;99.90
48206;DHT22;33995;48.202;16.260;2022-10-31T03:12:43;11.00;99.90
48206;DHT22;33995;48.202;16.260;2022-10-31T03:15:25;10.90;99.90
48206;DHT22;33995;48.202;16.260;2022-10-31T03:18:08;10.90;99.90
48206;DHT22;33995;48.202;16.260;2022-10-31T03:20:41;10.90;99.90
48206;DHT22;33995;48.202;16.260;2022-10-31T03:23:16;10.90;99.90
48206;DHT22;33995;48.202;16.260;2022-10-31T03:25:50;10.80;99.90
48206;DHT22;33995;48.202;16.260;2022-10-31T03:28:29;10.80;99.90
48206;DHT22;33995;48.202;16.260;2022-10-31T03:30:58;10.80;99.90
48206;DHT22;33995;48.202;16.260;2022-10-31T03:33:35;10.70;99.90
48206;DHT22;33995;48.202;16.260;2022-10-31T03:36:05;10.70;99.90
48206;DHT22;33995;48.202;16.260;2022-10-31T03:38:34;10.70;99.90
48206;DHT22;33995;48.202;16.260;2022-10-31T03:41:05;10.70;99.90
48206;DHT22;33995;48.202;16.260;2022-10-31T03:43:38;10.70;99.90
48206;DHT22;33995;48.202;16.260;2022-10-31T03:46:08;10.80;99.90
48206;DHT22;33995;48.202;16.260;2022-10-31T03:48:35;10.70;99.90
48206;DHT22;33995;48.202;16.260;2022-10-31T03:54:28;10.70;99.90
48206;DHT22;33995;48.202;16.260;2022-10-31T03:57:03;10.70;99.90
48206;DHT22;33995;48.202;16.260;2022-10-31T03:59:36;10.70;99.90
48206;DHT22;33995;48.202;16.260;2022-10-31T04:02:15;10.70;99.90
48206;DHT22;33995;48.202;16.260;2022-10-31T04:04:44;10.70;99.90
48206;DHT22;33995;48.202;16.260;2022-10-31T04:07:13;10.70;99.90
48206;DHT22;33995;48.202;16.260;2022-10-31T04:09:43;10.70;99.90
48206;DHT22;33995;48.202;16.260;2022-10-31T04:12:14;10.60;99.90
48206;DHT22;33995;48.202;16.260;2022-10-31T04:14:48;10.60;99.90
48206;DHT22;33995;48.202;16.260;2022-10-31T04:17:19;10.70;99.90
48206;DHT22;33995;48.202;16.260;2022-10-31T04:19:48;10.60;99.90
48206;DHT22;33995;48.202;16.260;2022-10-31T04:22:16;10.60;99.90
48206;DHT22;33995;48.202;16.260;2022-10-31T04:24:43;10.60;99.90
48206;DHT22;33995;48.202;16.260;2022-10-31T04:27:14;10.70;99.90
48206;DHT22;33995;48.202;16.260;2022-10-31T04:29:41;10.60;99.90
48206;DHT22;33995;48.202;16.260;2022-10-31T04:32:15;10.60;99.90
48206;DHT22;33995;48.202;16.260;2022-10-31T04:34:42;10.50;99.90
48206;DHT22;33995;48.202;16.260;2022-10-31T04:37:10;10.60;99.90
48206;DHT22;33995;48.202;16.260;2022-10-31T04:39:38;10.60;99.90
48206;DHT22;33995;48.202;16.260;2022-10-31T04:42:29;10.50;99.90
48206;DHT22;33995;48.202;16.260;2022-10-31T04:44:59;10.60;99.90
48206;DHT22;33995;48.202;16.260;2022-10-31T04:47:27;10.60;99.90
48206;DHT22;33995;48.202;16.260;2022-10-31T04:49:55;10.60;99.90
48206;DHT22;33995;48.202;16.260;2022-10-31T04:52:22;10.60;99.90
48206;DHT22;33995;48.202;16.260;2022-10-31T04:54:50;10.50;99.90
48206;DHT22;33995;48.202;16.260;2022-10-31T04:57:55;10.50;99.90
48206;DHT22;33995;48.202;16.260;2022-10-31T05:00:25;10.50;99.90
48206;DHT22;33995;48.202;16.260;2022-10-31T05:02:57;10.50;99.90
48206;DHT22;33995;48.202;16.260;2022-10-31T05:05:30;10.50;99.90
48206;DHT22;33995;48.202;16.260;2022-10-31T05:08:00;10.60;99.90
48206;DHT22;33995;48.202;16.260;2022-10-31T05:10:30;10.50;99.90
48206;DHT22;33995;48.202;16.260;2022-10-31T05:13:01;10.50;99.90
48206;DHT22;33995;48.202;16.260;2022-10-31T05:15:49;10.50;99.90
48206;DHT22;33995;48.202;16.260;2022-10-31T05:18:35;10.50;99.90
48206;DHT22;33995;48.202;16.260;2022-10-31T05:21:11;10.50;99.90
48206;DHT22;33995;48.202;16.260;2022-10-31T05:23:49;10.50;99.90
48206;DHT22;33995;48.202;16.260;2022-10-31T05:26:17;10.50;99.90
48206;DHT22;33995;48.202;16.260;2022-10-31T05:28:44;10.50;99.90
48206;DHT22;33995;48.202;16.260;2022-10-31T05:31:12;10.40;99.90
48206;DHT22;33995;48.202;16.260;2022-10-31T05:33:41;10.40;99.90
48206;DHT22;33995;48.202;16.260;2022-10-31T05:36:47;10.40;99.90
48206;DHT22;33995;48.202;16.260;2022-10-31T05:39:16;10.40;99.90
48206;DHT22;33995;48.202;16.260;2022-10-31T05:41:47;10.40;99.90
48206;DHT22;33995;48.202;16.260;2022-10-31T05:44:19;10.40;99.90
48206;DHT22;33995;48.202;16.260;2022-10-31T05:46:54;10.40;99.90
48206;DHT22;33995;48.202;16.260;2022-10-31T05:49:57;10.40;99.90
48206;DHT22;33995;48.202;16.260;2022-10-31T05:52:42;10.40;99.90
48206;DHT22;33995;48.202;16.260;2022-10-31T05:55:24;10.50;99.90
48206;DHT22;33995;48.202;16.260;2022-10-31T05:58:12;10.50;99.90
48206;DHT22;33995;48.202;16.260;2022-10-31T06:00:47;10.50;99.90
48206;DHT22;33995;48.202;16.260;2022-10-31T06:03:15;10.50;99.90
48206;DHT22;33995;48.202;16.260;2022-10-31T06:05:52;10.50;99.90
48206;DHT22;33995;48.202;16.260;2022-10-31T06:08:24;10.50;99.90
48206;DHT22;33995;48.202;16.260;2022-10-31T06:10:54;10.50;99.90
48206;DHT22;33995;48.202;16.260;2022-10-31T06:13:41;10.50;99.90
48206;DHT22;33995;48.202;16.260;2022-10-31T06:16:16;10.60;99.90
48206;DHT22;33995;48.202;16.260;2022-10-31T06:18:45;10.60;99.90
48206;DHT22;33995;48.202;16.260;2022-10-31T06:21:13;10.60;99.90
48206;DHT22;33995;48.202;16.260;2022-10-31T06:23:46;10.60;99.90
48206;DHT22;33995;48.202;16.260;2022-10-31T06:26:33;10.60;99.90
48206;DHT22;33995;48.202;16.260;2022-10-31T06:29:02;10.70;99.90
48206;DHT22;33995;48.202;16.260;2022-10-31T06:31:58;10.70;99.90
48206;DHT22;33995;48.202;16.260;2022-10-31T06:34:26;10.70;99.90
48206;DHT22;33995;48.202;16.260;2022-10-31T06:36:53;10.70;99.90
48206;DHT22;33995;48.202;16.260;2022-10-31T06:39:24;10.80;99.90
48206;DHT22;33995;48.202;16.260;2022-10-31T06:41:52;10.80;99.90
48206;DHT22;33995;48.202;16.260;2022-10-31T06:44:21;10.80;99.90
48206;DHT22;33995;48.202;16.260;2022-10-31T06:46:55;10.80;99.90
48206;DHT22;33995;48.202;16.260;2022-10-31T06:49:40;10.70;99.90
48206;DHT22;33995;48.202;16.260;2022-10-31T06:52:15;10.70;99.90
48206;DHT22;33995;48.202;16.260;2022-10-31T06:54:43;10.70;99.90
48206;DHT22;33995;48.202;16.260;2022-10-31T06:57:10;10.80;99.90
48206;DHT22;33995;48.202;16.260;2022-10-31T06:59:40;10.80;99.90
48206;DHT22;33995;48.202;16.260;2022-10-31T07:02:29;10.80;99.90
48206;DHT22;33995;48.202;16.260;2022-10-31T07:05:00;10.90;99.90
48206;DHT22;33995;48.202;16.260;2022-10-31T07:07:27;10.90;99.90
48206;DHT22;33995;48.202;16.260;2022-10-31T07:09:55;11.00;99.90
48206;DHT22;33995;48.202;16.260;2022-10-31T07:12:39;11.10;99.90
48206;DHT22;33995;48.202;16.260;2022-10-31T07:15:08;11.10;99.90
48206;DHT22;33995;48.202;16.260;2022-10-31T07:17:37;11.10;99.90
48206;DHT22;33995;48.202;16.260;2022-10-31T07:20:05;11.20;99.90
48206;DHT22;33995;48.202;16.260;2022-10-31T07:22:36;11.30;99.90
48206;DHT22;33995;48.202;16.260;2022-10-31T07:25:07;11.30;99.90
48206;DHT22;33995;48.202;16.260;2022-10-31T07:27:55;11.30;99.90
48206;DHT22;33995;48.202;16.260;2022-10-31T07:30:23;11.30;99.90
48206;DHT22;33995;48.202;16.260;2022-10-31T07:32:54;11.30;99.90
48206;DHT22;33995;48.202;16.260;2022-10-31T07:35:27;11.40;99.90
48206;DHT22;33995;48.202;16.260;2022-10-31T07:37:57;11.50;99.90
48206;DHT22;33995;48.202;16.260;2022-10-31T07:40:26;11.60;99.90
48206;DHT22;33995;48.202;16.260;2022-10-31T07:42:53;11.50;99.90
48206;DHT22;33995;48.202;16.260;2022-10-31T07:45:51;11.60;99.90
48206;DHT22;33995;48.202;16.260;2022-10-31T07:48:37;11.60;99.90
48206;DHT22;33995;48.202;16.260;2022-10-31T07:51:23;11.60;99.90
48206;DHT22;33995;48.202;16.260;2022-10-31T07:54:03;11.70;99.90
48206;DHT22;33995;48.202;16.260;2022-10-31T07:56:31;11.60;99.90
48206;DHT22;33995;48.202;16.260;2022-10-31T07:58:59;11.70;99.90
48206;DHT22;33995;48.202;16.260;2022-10-31T08:01:27;11.70;99.90
48206;DHT22;33995;48.202;16.260;2022-10-31T08:04:17;11.60;99.90
48206;DHT22;33995;48.202;16.260;2022-10-31T08:07:07;11.70;99.90
48206;DHT22;33995;48.202;16.260;2022-10-31T08:09:38;11.70;99.90
48206;DHT22;33995;48.202;16.260;2022-10-31T08:12:19;11.70;99.90
48206;DHT22;33995;48.202;16.260;2022-10-31T08:14:46;11.70;99.90
48206;DHT22;33995;48.202;16.260;2022-10-31T08:17:17;11.70;99.90
48206;DHT22;33995;48.202;16.260;2022-10-31T08:19:55;11.80;99.90
48206;DHT22;33995;48.202;16.260;2022-10-31T08:22:32;11.90;99.90
48206;DHT22;33995;48.202;16.260;2022-10-31T08:25:01;11.80;99.90
48206;DHT22;33995;48.202;16.260;2022-10-31T08:27:31;11.90;99.90
48206;DHT22;33995;48.202;16.260;2022-10-31T08:30:00;11.90;99.90
48206;DHT22;33995;48.202;16.260;2022-10-31T08:32:28;12.00;99.90
48206;DHT22;33995;48.202;16.260;2022-10-31T08:35:32;12.00;99.90
48206;DHT22;33995;48.202;16.260;2022-10-31T08:38:35;11.90;99.90
48206;DHT22;33995;48.202;16.260;2022-10-31T08:41:02;11.90;99.90
48206;DHT22;33995;48.202;16.260;2022-10-31T08:43:30;12.00;99.90
48206;DHT22;33995;48.202;16.260;2022-10-31T08:46:01;12.00;99.90
48206;DHT22;33995;48.202;16.260;2022-10-31T08:48:30;12.00;99.90
48206;DHT22;33995;48.202;16.260;2022-10-31T08:51:00;12.10;99.90
48206;DHT22;33995;48.202;16.260;2022-10-31T08:53:29;12.10;99.90
48206;DHT22;33995;48.202;16.260;2022-10-31T08:56:34;12.20;99.90
48206;DHT22;33995;48.202;16.260;2022-10-31T08:59:05;12.20;99.90
48206;DHT22;33995;48.202;16.260;2022-10-31T09:01:46;12.20;99.90
48206;DHT22;33995;48.202;16.260;2022-10-31T09:05:03;12.10;99.90
48206;DHT22;33995;48.202;16.260;2022-10-31T09:07:30;12.10;99.90
48206;DHT22;33995;48.202;16.260;2022-10-31T09:10:01;12.10;99.90
48206;DHT22;33995;48.202;16.260;2022-10-31T09:12:32;12.10;99.90
48206;DHT22;33995;48.202;16.260;2022-10-31T09:15:28;12.30;99.90
48206;DHT22;33995;48.202;16.260;2022-10-31T09:18:20;12.30;99.90
48206;DHT22;33995;48.202;16.260;2022-10-31T09:20:59;12.50;99.90
48206;DHT22;33995;48.202;16.260;2022-10-31T09:23:29;12.70;99.90
48206;DHT22;33995;48.202;16.260;2022-10-31T09:26:03;12.90;99.90
48206;DHT22;33995;48.202;16.260;2022-10-31T09:28:36;13.10;99.90
48206;DHT22;33995;48.202;16.260;2022-10-31T09:31:12;13.10;99.90
48206;DHT22;33995;48.202;16.260;2022-10-31T09:33:54;13.00;99.90
48206;DHT22;33995;48.202;16.260;2022-10-31T09:36:37;13.20;99.90
48206;DHT22;33995;48.202;16.260;2022-10-31T09:39:13;13.30;99.90
48206;DHT22;33995;48.202;16.260;2022-10-31T09:42:09;13.20;99.90
48206;DHT22;33995;48.202;16.260;2022-10-31T09:51:15;12.90;99.90
48206;DHT22;33995;48.202;16.260;2022-10-31T09:54:26;12.90;99.90
48206;DHT22;33995;48.202;16.260;2022-10-31T09:56:57;13.00;99.90
48206;DHT22;33995;48.202;16.260;2022-10-31T09:59:35;13.10;99.90
48206;DHT22;33995;48.202;16.260;2022-10-31T10:02:15;13.20;99.90
48206;DHT22;33995;48.202;16.260;2022-10-31T10:05:11;13.20;99.90
48206;DHT22;33995;48.202;16.260;2022-10-31T10:08:08;13.10;99.90
48206;DHT22;33995;48.202;16.260;2022-10-31T10:11:27;13.20;99.90
48206;DHT22;33995;48.202;16.260;2022-10-31T10:28:20;13.30;99.90
48206;DHT22;33995;48.202;16.260;2022-10-31T10:33:19;13.40;99.90
48206;DHT22;33995;48.202;16.260;2022-10-31T10:38:46;13.40;99.90
48206;DHT22;33995;48.202;16.260;2022-10-31T10:41:21;13.30;99.90
48206;DHT22;33995;48.202;16.260;2022-10-31T10:43:50;13.20;99.90
48206;DHT22;33995;48.202;16.260;2022-10-31T10:58:06;13.30;99.90
48206;DHT22;33995;48.202;16.260;2022-10-31T11:00:45;13.40;99.90
48206;DHT22;33995;48.202;16.260;2022-10-31T11:03:18;13.40;99.90
48206;DHT22;33995;48.202;16.260;2022-10-31T11:05:53;13.30;99.90
48206;DHT22;33995;48.202;16.260;2022-10-31T11:08:29;13.30;99.90
48206;DHT22;33995;48.202;16.260;2022-10-31T11:13:47;13.40;99.90
48206;DHT22;33995;48.202;16.260;2022-10-31T11:16:40;13.40;99.90
48206;DHT22;33995;48.202;16.260;2022-10-31T11:21:39;13.20;99.90
48206;DHT22;33995;48.202;16.260;2022-10-31T11:26:38;13.20;99.90
48206;DHT22;33995;48.202;16.260;2022-10-31T11:29:25;13.30;99.90
48206;DHT22;33995;48.202;16.260;2022-10-31T11:31:55;13.30;99.90
48206;DHT22;33995;48.202;16.260;2022-10-31T11:34:32;13.20;99.90
48206;DHT22;33995;48.202;16.260;2022-10-31T11:39:58;13.20;99.90
48206;DHT22;33995;48.202;16.260;2022-10-31T11:42:28;13.30;99.90
48206;DHT22;33995;48.202;16.260;2022-10-31T11:44:57;13.30;99.90
48206;DHT22;33995;48.202;16.260;2022-10-31T11:47:29;13.40;99.90
48206;DHT22;33995;48.202;16.260;2022-10-31T11:50:02;13.20;99.90
48206;DHT22;33995;48.202;16.260;2022-10-31T11:52:38;13.20;99.90
48206;DHT22;33995;48.202;16.260;2022-10-31T11:57:46;13.20;99.90
48206;DHT22;33995;48.202;16.260;2022-10-31T12:00:29;13.20;99.90
48206;DHT22;33995;48.202;16.260;2022-10-31T12:05:44;13.40;99.90
48206;DHT22;33995;48.202;16.260;2022-10-31T12:08:13;13.30;99.90
48206;DHT22;33995;48.202;16.260;2022-10-31T12:10:58;13.10;99.90
48206;DHT22;33995;48.202;16.260;2022-10-31T12:17:03;13.20;99.90
48206;DHT22;33995;48.202;16.260;2022-10-31T12:19:51;13.00;99.90
48206;DHT22;33995;48.202;16.260;2022-10-31T12:23:00;13.20;99.90
48206;DHT22;33995;48.202;16.260;2022-10-31T12:25:39;13.20;99.90
48206;DHT22;33995;48.202;16.260;2022-10-31T12:28:44;13.20;99.90
48206;DHT22;33995;48.202;16.260;2022-10-31T12:36:54;13.00;99.90
48206;DHT22;33995;48.202;16.260;2022-10-31T12:59:20;13.00;99.90
48206;DHT22;33995;48.202;16.260;2022-10-31T13:02:00;12.90;99.90
48206;DHT22;33995;48.202;16.260;2022-10-31T13:04:49;12.90;99.90
48206;DHT22;33995;48.202;16.260;2022-10-31T13:10:17;12.90;99.90
48206;DHT22;33995;48.202;16.260;2022-10-31T13:12:48;12.80;99.90
48206;DHT22;33995;48.202;16.260;2022-10-31T13:15:25;12.80;99.90
48206;DHT22;33995;48.202;16.260;2022-10-31T13:17:59;12.80;99.90
48206;DHT22;33995;48.202;16.260;2022-10-31T13:20:40;12.80;99.90
48206;DHT22;33995;48.202;16.260;2022-10-31T13:26:15;12.60;99.90
48206;DHT22;33995;48.202;16.260;2022-10-31T13:31:27;12.60;99.90
48206;DHT22;33995;48.202;16.260;2022-10-31T13:33:58;12.60;99.90
48206;DHT22;33995;48.202;16.260;2022-10-31T13:36:54;12.70;99.90
48206;DHT22;33995;48.202;16.260;2022-10-31T13:42:35;12.70;99.90
48206;DHT22;33995;48.202;16.260;2022-10-31T13:45:25;12.70;99.90
48206;DHT22;33995;48.202;16.260;2022-10-31T13:48:40;12.70;99.90
48206;DHT22;33995;48.202;16.260;2022-10-31T13:51:09;12.70;99.90
48206;DHT22;33995;48.202;16.260;2022-10-31T13:53:56;12.70;99.90
48206;DHT22;33995;48.202;16.260;2022-10-31T13:56:30;12.70;99.90
48206;DHT22;33995;48.202;16.260;2022-10-31T14:01:49;12.70;99.90
48206;DHT22;33995;48.202;16.260;2022-10-31T14:04:23;12.70;99.90
48206;DHT22;33995;48.202;16.260;2022-10-31T14:09:38;12.70;99.90
48206;DHT22;33995;48.202;16.260;2022-10-31T14:12:33;12.60;99.90
48206;DHT22;33995;48.202;16.260;2022-10-31T14:15:16;12.70;99.90
48206;DHT22;33995;48.202;16.260;2022-10-31T14:18:05;12.70;99.90
48206;DHT22;33995;48.202;16.260;2022-10-31T14:20:41;12.50;99.90
48206;DHT22;33995;48.202;16.260;2022-10-31T14:28:58;12.50;99.90
48206;DHT22;33995;48.202;16.260;2022-10-31T14:33:54;12.50;99.90
48206;DHT22;33995;48.202;16.260;2022-10-31T14:50:14;12.30;99.90
48206;DHT22;33995;48.202;16.260;2022-10-31T14:52:48;12.30;99.90
48206;DHT22;33995;48.202;16.260;2022-10-31T14:55:17;12.40;99.90
48206;DHT22;33995;48.202;16.260;2022-10-31T14:58:01;12.40;99.90
48206;DHT22;33995;48.202;16.260;2022-10-31T15:00:29;12.30;99.90
48206;DHT22;33995;48.202;16.260;2022-10-31T15:05:55;12.40;99.90
48206;DHT22;33995;48.202;16.260;2022-10-31T15:09:20;12.50;99.90
48206;DHT22;33995;48.202;16.260;2022-10-31T15:11:27;12.50;99.90
48206;DHT22;33995;48.202;16.260;2022-10-31T15:13:57;12.50;99.90
48206;DHT22;33995;48.202;16.260;2022-10-31T15:16:34;12.50;99.90
48206;DHT22;33995;48.202;16.260;2022-10-31T15:19:06;12.50;99.90
48206;DHT22;33995;48.202;16.260;2022-10-31T15:21:44;12.40;99.90
48206;DHT22;33995;48.202;16.260;2022-10-31T15:24:14;12.30;99.90
48206;DHT22;33995;48.202;16.260;2022-10-31T15:26:47;12.10;99.90
48206;DHT22;33995;48.202;16.260;2022-10-31T15:29:21;12.10;99.90
48206;DHT22;33995;48.202;16.260;2022-10-31T15:36:55;12.10;99.90
48206;DHT22;33995;48.202;16.260;2022-10-31T15:39:22;12.00;99.90
48206;DHT22;33995;48.202;16.260;2022-10-31T15:41:52;12.10;99.90
48206;DHT22;33995;48.202;16.260;2022-10-31T15:44:30;12.10;99.90
48206;DHT22;33995;48.202;16.260;2022-10-31T15:47:02;12.20;99.90
48206;DHT22;33995;48.202;16.260;2022-10-31T15:49:42;12.10;99.90
48206;DHT22;33995;48.202;16.260;2022-10-31T15:57:31;12.10;99.90
48206;DHT22;33995;48.202;16.260;2022-10-31T16:00:00;12.10;99.90
48206;DHT22;33995;48.202;16.260;2022-10-31T16:02:27;12.10;99.90
48206;DHT22;33995;48.202;16.260;2022-10-31T16:04:58;12.10;99.90
48206;DHT22;33995;48.202;16.260;2022-10-31T16:07:28;12.10;99.90
48206;DHT22;33995;48.202;16.260;2022-10-31T16:10:01;12.00;99.90
48206;DHT22;33995;48.202;16.260;2022-10-31T16:12:37;12.10;99.90
48206;DHT22;33995;48.202;16.260;2022-10-31T16:15:16;12.00;99.90
48206;DHT22;33995;48.202;16.260;2022-10-31T16:17:46;12.00;99.90
48206;DHT22;33995;48.202;16.260;2022-10-31T16:20:37;12.00;99.90
48206;DHT22;33995;48.202;16.260;2022-10-31T16:23:05;12.00;99.90
48206;DHT22;33995;48.202;16.260;2022-10-31T16:25:37;12.00;99.90
48206;DHT22;33995;48.202;16.260;2022-10-31T16:28:20;12.00;99.90
48206;DHT22;33995;48.202;16.260;2022-10-31T16:30:55;12.10;99.90
48206;DHT22;33995;48.202;16.260;2022-10-31T16:33:31;12.10;99.90
48206;DHT22;33995;48.202;16.260;2022-10-31T16:36:29;12.10;99.90
48206;DHT22;33995;48.202;16.260;2022-10-31T16:39:02;12.00;99.90
48206;DHT22;33995;48.202;16.260;2022-10-31T16:41:31;12.00;99.90
48206;DHT22;33995;48.202;16.260;2022-10-31T16:44:02;11.90;99.90
48206;DHT22;33995;48.202;16.260;2022-10-31T16:46:31;12.00;99.90
48206;DHT22;33995;48.202;16.260;2022-10-31T16:48:58;11.90;99.90
48206;DHT22;33995;48.202;16.260;2022-10-31T16:51:26;11.90;99.90
48206;DHT22;33995;48.202;16.260;2022-10-31T16:53:53;11.90;99.90
48206;DHT22;33995;48.202;16.260;2022-10-31T16:56:27;11.90;99.90
48206;DHT22;33995;48.202;16.260;2022-10-31T16:58:55;11.90;99.90
48206;DHT22;33995;48.202;16.260;2022-10-31T17:01:23;11.80;99.90
48206;DHT22;33995;48.202;16.260;2022-10-31T17:04:16;11.80;99.90
48206;DHT22;33995;48.202;16.260;2022-10-31T17:06:44;11.70;99.90
48206;DHT22;33995;48.202;16.260;2022-10-31T17:09:22;11.70;99.90
48206;DHT22;33995;48.202;16.260;2022-10-31T17:11:53;11.70;99.90
48206;DHT22;33995;48.202;16.260;2022-10-31T17:14:25;11.70;99.90
48206;DHT22;33995;48.202;16.260;2022-10-31T17:16:53;11.60;99.90
48206;DHT22;33995;48.202;16.260;2022-10-31T17:19:32;11.60;99.90
48206;DHT22;33995;48.202;16.260;2022-10-31T17:22:04;11.60;99.90
48206;DHT22;33995;48.202;16.260;2022-10-31T17:24:35;11.60;99.90
48206;DHT22;33995;48.202;16.260;2022-10-31T17:27:06;11.60;99.90
48206;DHT22;33995;48.202;16.260;2022-10-31T17:29:36;11.70;99.90
48206;DHT22;33995;48.202;16.260;2022-10-31T17:32:09;11.50;99.90
48206;DHT22;33995;48.202;16.260;2022-10-31T17:34:52;11.50;99.90
48206;DHT22;33995;48.202;16.260;2022-10-31T17:37:20;11.50;99.90
48206;DHT22;33995;48.202;16.260;2022-10-31T17:39:49;11.50;99.90
48206;DHT22;33995;48.202;16.260;2022-10-31T17:42:31;11.40;99.90
48206;DHT22;33995;48.202;16.260;2022-10-31T17:45:02;11.30;99.90
48206;DHT22;33995;48.202;16.260;2022-10-31T17:47:34;11.40;99.90
48206;DHT22;33995;48.202;16.260;2022-10-31T17:50:10;11.40;99.90
48206;DHT22;33995;48.202;16.260;2022-10-31T17:52:43;11.40;99.90
48206;DHT22;33995;48.202;16.260;2022-10-31T17:55:15;11.40;99.90
48206;DHT22;33995;48.202;16.260;2022-10-31T17:57:44;11.40;99.90
48206;DHT22;33995;48.202;16.260;2022-10-31T18:00:28;11.40;99.90
48206;DHT22;33995;48.202;16.260;2022-10-31T18:03:06;11.30;99.90
48206;DHT22;33995;48.202;16.260;2022-10-31T18:05:56;11.40;99.90
48206;DHT22;33995;48.202;16.260;2022-10-31T18:08:32;11.30;99.90
48206;DHT22;33995;48.202;16.260;2022-10-31T18:11:34;11.30;99.90
48206;DHT22;33995;48.202;16.260;2022-10-31T18:14:05;11.40;99.90
48206;DHT22;33995;48.202;16.260;2022-10-31T18:16:36;11.40;99.90
48206;DHT22;33995;48.202;16.260;2022-10-31T18:19:12;11.30;99.90
48206;DHT22;33995;48.202;16.260;2022-10-31T18:21:43;11.30;99.90
48206;DHT22;33995;48.202;16.260;2022-10-31T18:24:17;11.40;99.90
48206;DHT22;33995;48.202;16.260;2022-10-31T18:27:00;11.40;99.90
48206;DHT22;33995;48.202;16.260;2022-10-31T18:29:30;11.30;99.90
48206;DHT22;33995;48.202;16.260;2022-10-31T18:32:14;11.30;99.90
48206;DHT22;33995;48.202;16.260;2022-10-31T18:34:44;11.40;99.90
48206;DHT22;33995;48.202;16.260;2022-10-31T18:39:49;11.30;99.90
48206;DHT22;33995;48.202;16.260;2022-10-31T18:42:22;11.40;99.90
48206;DHT22;33995;48.202;16.260;2022-10-31T18:44:52;11.40;99.90
48206;DHT22;33995;48.202;16.260;2022-10-31T18:48:26;11.40;99.90
48206;DHT22;33995;48.202;16.260;2022-10-31T18:52:26;11.40;99.90
48206;DHT22;33995;48.202;16.260;2022-10-31T18:55:06;11.40;99.90